Saint Petersburg, FL

2:34 PM EST on January 26, 2015 (GMT -0500)
Saint Petersburg-Clearwater International | Change Station
CLOSE
Current Station
Airport
Location: St. Petersburg Airport,
Elevation: 10 ft
Nearby Weather Stations

Elev 10 ft 27.91 °N, 82.69 °W | Updated 41 minutes ago

Mostly Cloudy
Mostly Cloudy
63 °F
Feels Like 63 °F
N
20
Wind Variable Wind from NW

Today
High -- | Low -- °F
--% Chance of Precip.
Yesterday
High -- | Low -- °F
Precip. -- in
7:20 AM 6:06 PM
Waxing Crescent, 46% visible
Pressure 29.90 in
Visibility 10.0 miles
Clouds Few 3000 ft
Scattered Clouds 4500 ft
Dew Point 51 °F
Humidity 65%
Rainfall 0.10 in
Snow Depth Not available.
UV 5 out of 12
Pollen 6.00 out of 12
Air Quality Not available.
Flu Activity Not available.
METAR KPIE 261853Z 32017KT 10SM FEW030 SCT045 17/11 A2990 RMK AO2 PK WND 28026/1754 SLP124 T01720106

More Conditions Fewer Conditions

Pressure 29.90 in
Visibility 10.0 miles
Clouds Few 3000 ft
Scattered Clouds 4500 ft
Dew Point 51 °F
Humidity 65%
Rainfall 0.10 in
Snow Depth Not available.
UV 5 out of 12
Pollen 6.00 out of 12
Air Quality Not available.
Flu Activity Not available.
METAR KPIE 261853Z 32017KT 10SM FEW030 SCT045 17/11 A2990 RMK AO2 PK WND 28026/1754 SLP124 T01720106

More Conditions Fewer Conditions

10-Day Weather Forecast

Almanac

Astronomy

Jan. 26, 2015 Rise Set
Actual Time
Civil Twilight
Nautical Twilight
Astronomical Twilight
Moon
Length of Visible Light
Length of Day
Tomorrow will be .
, % of the Moon is Illuminated

Today's Extremes

State Highs State Lows

Community

WunderPhotos

Upload Photos

1,790,338 photos uploaded!

WunderBlogs® & News

Nearby

Air Quality

  Air Quality AQ Index Pollutant
Not available.

Snow Depth

Station Depth Elevation

Earthquake Activity

City Distance Mag. Time & Date
Minimum magnitude displayed is 2.5.

Coastal Water Temperatures

Place Temperature

Nearby Weather Stations